createdAt,value
2018-10-12T00:00:15.797Z,998.1
2018-10-12T00:03:15.694Z,998.1
2018-10-12T00:06:15.775Z,998.2
2018-10-12T00:09:14.984Z,998.2
2018-10-12T00:12:15.142Z,998.2
2018-10-12T00:15:15.351Z,998.2
2018-10-12T00:18:15.527Z,998.2
2018-10-12T00:21:15.777Z,998.1
2018-10-12T00:24:15.973Z,998.2
2018-10-12T00:27:15.099Z,998.2
2018-10-12T00:30:15.251Z,998.3
2018-10-12T00:33:15.394Z,998.3
2018-10-12T00:36:15.681Z,998.3
2018-10-12T00:39:15.867Z,998.3
2018-10-12T00:42:15.212Z,998.3
2018-10-12T00:45:15.264Z,998.3
2018-10-12T00:48:15.480Z,998.3
2018-10-12T00:51:15.786Z,998.4
2018-10-12T00:54:15.842Z,998.3
2018-10-12T00:57:15.177Z,998.3
2018-10-12T01:00:15.337Z,998.3
2018-10-12T01:03:15.388Z,998.3
2018-10-12T01:06:15.481Z,998.3
2018-10-12T01:09:15.756Z,998.3
2018-10-12T01:12:14.943Z,998.4
2018-10-12T01:15:15.257Z,998.4
2018-10-12T01:18:15.377Z,998.4
2018-10-12T01:21:15.526Z,998.3
2018-10-12T01:24:15.934Z,998.4
2018-10-12T01:27:15.745Z,998.5
2018-10-12T01:30:15.593Z,998.5
2018-10-12T01:33:15.488Z,998.6
2018-10-12T01:36:15.794Z,998.6
2018-10-12T01:39:15.812Z,998.6
2018-10-12T01:42:15.826Z,998.5
2018-10-12T01:45:15.384Z,998.5
2018-10-12T01:48:15.782Z,998.5
2018-10-12T01:51:15.894Z,998.5
2018-10-12T01:54:15.016Z,998.5
2018-10-12T01:57:15.201Z,998.5
2018-10-12T02:00:15.148Z,998.5
2018-10-12T02:03:15.274Z,998.6
2018-10-12T02:06:15.586Z,998.7
2018-10-12T02:09:15.692Z,998.8
2018-10-12T02:12:15.772Z,998.7
2018-10-12T02:15:15.843Z,998.7
2018-10-12T02:18:14.993Z,998.7
2018-10-12T02:21:15.772Z,998.8
2018-10-12T02:24:15.792Z,998.8
2018-10-12T02:27:15.897Z,999.0
2018-10-12T02:30:15.066Z,999.0
2018-10-12T02:33:15.339Z,999.1
2018-10-12T02:36:15.361Z,999.2
2018-10-12T02:39:15.322Z,999.2
2018-10-12T02:42:15.584Z,999.1
2018-10-12T02:45:15.696Z,999.1
2018-10-12T02:48:15.855Z,999.1
2018-10-12T02:51:15.220Z,999.1
2018-10-12T02:54:15.520Z,999.1
2018-10-12T02:57:15.772Z,999.2
2018-10-12T03:00:15.898Z,999.3
2018-10-12T03:03:15.102Z,999.4
2018-10-12T03:06:15.611Z,999.3
2018-10-12T03:09:15.895Z,999.4
2018-10-12T03:12:15.403Z,999.4
2018-10-12T03:15:15.641Z,999.5
2018-10-12T03:18:15.981Z,999.5
2018-10-12T03:21:15.232Z,999.5
2018-10-12T03:24:15.648Z,999.5
2018-10-12T03:27:15.953Z,999.5
2018-10-12T03:30:15.418Z,999.5
2018-10-12T03:33:15.504Z,999.5
2018-10-12T03:36:15.233Z,999.5
2018-10-12T03:39:15.076Z,999.5
2018-10-12T03:42:15.373Z,999.4
2018-10-12T03:45:15.586Z,999.5
2018-10-12T03:48:15.451Z,999.5
2018-10-12T03:51:15.579Z,999.4
2018-10-12T03:54:15.623Z,999.5
2018-10-12T03:57:15.676Z,999.6
2018-10-12T04:00:16.062Z,999.6
2018-10-12T04:03:15.339Z,999.6
2018-10-12T04:06:15.720Z,999.8
2018-10-12T04:09:15.004Z,999.9
2018-10-12T04:12:15.240Z,999.9
2018-10-12T04:15:15.713Z,1000.0
2018-10-12T04:18:15.986Z,1000.0
2018-10-12T04:21:15.272Z,1000.0
2018-10-12T04:24:15.514Z,1000.0
2018-10-12T04:27:15.162Z,1000.1
2018-10-12T04:30:15.534Z,1000.2
2018-10-12T04:33:15.860Z,1000.3
2018-10-12T04:36:15.344Z,1000.3
2018-10-12T04:39:15.515Z,1000.3
2018-10-12T04:42:15.862Z,1000.4
2018-10-12T04:45:15.148Z,1000.5
2018-10-12T04:48:15.672Z,1000.5
2018-10-12T04:51:15.805Z,1000.5
2018-10-12T04:54:15.838Z,1000.5
2018-10-12T04:57:15.729Z,1000.5
2018-10-12T05:00:15.740Z,1000.6
2018-10-12T05:03:15.508Z,1000.5
2018-10-12T05:06:15.654Z,1000.6
2018-10-12T05:09:15.221Z,1000.6
2018-10-12T05:12:15.511Z,1000.7
2018-10-12T05:15:15.754Z,1000.8
2018-10-12T05:18:15.186Z,1000.9
2018-10-12T05:21:15.444Z,1000.9
2018-10-12T05:24:15.787Z,1000.9
2018-10-12T05:27:15.002Z,1000.8
2018-10-12T05:30:15.153Z,1000.7
2018-10-12T05:33:15.341Z,1000.8
2018-10-12T05:36:15.776Z,1000.8
2018-10-12T05:39:15.228Z,1000.7
2018-10-12T05:42:15.543Z,1000.8
2018-10-12T05:45:16.001Z,1000.8
2018-10-12T05:48:15.409Z,1000.9
2018-10-12T05:51:15.929Z,1001.0
2018-10-12T05:54:15.262Z,1001.1
2018-10-12T05:57:15.538Z,1001.2
2018-10-12T06:00:15.216Z,1001.2
2018-10-12T06:03:15.505Z,1001.3
2018-10-12T06:06:15.738Z,1001.3
2018-10-12T06:09:15.056Z,1001.3
2018-10-12T06:12:15.757Z,1001.3
2018-10-12T06:15:15.110Z,1001.4
2018-10-12T06:18:15.765Z,1001.4
2018-10-12T06:21:15.052Z,1001.5
2018-10-12T06:24:15.378Z,1001.6
2018-10-12T06:27:15.737Z,1001.7
2018-10-12T06:30:15.829Z,1001.7
2018-10-12T06:33:15.405Z,1001.6
2018-10-12T06:36:15.627Z,1001.7
2018-10-12T06:39:15.803Z,1001.8
2018-10-12T06:42:15.953Z,1001.9
2018-10-12T06:45:15.299Z,1001.9
2018-10-12T06:48:15.484Z,1002.0
2018-10-12T06:51:15.418Z,1002.0
2018-10-12T06:54:15.581Z,1002.1
2018-10-12T06:57:15.937Z,1002.2
2018-10-12T07:00:15.380Z,1002.2
2018-10-12T07:03:15.935Z,1002.2
2018-10-12T07:06:15.557Z,1002.3
2018-10-12T07:09:15.970Z,1002.4
2018-10-12T07:12:15.200Z,1002.4
2018-10-12T07:15:15.586Z,1002.4
2018-10-12T07:18:15.786Z,1002.4
2018-10-12T07:21:15.606Z,1002.4
2018-10-12T07:24:16.003Z,1002.4
2018-10-12T07:27:15.077Z,1002.4
2018-10-12T07:30:15.297Z,1002.4
2018-10-12T07:33:15.576Z,1002.4
2018-10-12T07:36:15.935Z,1002.4
2018-10-12T07:39:15.266Z,1002.5
2018-10-12T07:42:15.726Z,1002.5
2018-10-12T07:45:15.668Z,1002.5
2018-10-12T07:48:15.464Z,1002.5
2018-10-12T07:51:15.901Z,1002.6
2018-10-12T07:54:15.120Z,1002.7
2018-10-12T07:57:15.277Z,1002.7
2018-10-12T08:00:15.408Z,1002.6
2018-10-12T08:03:15.452Z,1002.7
2018-10-12T08:06:15.956Z,1002.7
2018-10-12T08:09:15.555Z,1002.8
2018-10-12T08:12:15.545Z,1002.8
2018-10-12T08:15:15.932Z,1002.8
2018-10-12T08:18:15.437Z,1002.9
2018-10-12T08:21:15.507Z,1002.9
2018-10-12T08:24:15.667Z,1003.0
2018-10-12T08:27:14.995Z,1002.9
2018-10-12T08:30:15.411Z,1002.9
2018-10-12T08:33:15.541Z,1003.0
2018-10-12T08:36:15.886Z,1003.0
2018-10-12T08:39:15.722Z,1003.0
2018-10-12T08:42:15.011Z,1003.0
2018-10-12T08:45:15.399Z,1003.1
2018-10-12T08:48:15.791Z,1003.1
2018-10-12T08:51:15.918Z,1003.1
2018-10-12T08:54:15.319Z,1003.2
2018-10-12T08:57:15.673Z,1003.3
2018-10-12T09:00:15.963Z,1003.3
2018-10-12T09:03:15.449Z,1003.3
2018-10-12T09:06:15.669Z,1003.2
2018-10-12T09:09:15.978Z,1003.3
2018-10-12T09:12:15.406Z,1003.3
2018-10-12T09:15:15.841Z,1003.3
2018-10-12T09:18:15.339Z,1003.3
2018-10-12T09:21:15.661Z,1003.3
2018-10-12T09:24:15.238Z,1003.3
2018-10-12T09:27:15.899Z,1003.3
2018-10-12T09:30:15.340Z,1003.3
2018-10-12T09:33:15.094Z,1003.3
2018-10-12T09:36:15.327Z,1003.4
2018-10-12T09:39:15.104Z,1003.4
2018-10-12T09:42:15.370Z,1003.5
2018-10-12T09:45:15.714Z,1003.5
2018-10-12T09:48:15.625Z,1003.5
2018-10-12T09:51:15.145Z,1003.5
2018-10-12T09:54:15.647Z,1003.5
2018-10-12T09:57:16.037Z,1003.4
2018-10-12T10:00:15.314Z,1003.5
2018-10-12T10:03:15.480Z,1003.4
2018-10-12T10:06:15.736Z,1003.3
2018-10-12T10:09:15.110Z,1003.4
2018-10-12T10:12:15.755Z,1003.3
2018-10-12T10:15:16.174Z,1003.3
2018-10-12T10:18:15.887Z,1003.4
2018-10-12T10:21:15.244Z,1003.4
2018-10-12T10:24:15.661Z,1003.3
2018-10-12T10:27:15.159Z,1003.3
2018-10-12T10:30:15.370Z,1003.2
2018-10-12T10:33:15.606Z,1003.2
2018-10-12T10:36:15.908Z,1003.2
2018-10-12T10:39:15.866Z,1003.2
2018-10-12T10:42:15.546Z,1003.2
2018-10-12T10:45:15.859Z,1003.2
2018-10-12T10:48:15.392Z,1003.2
2018-10-12T10:51:15.117Z,1003.1
2018-10-12T10:54:15.640Z,1003.2
2018-10-12T10:57:15.406Z,1003.1
2018-10-12T11:00:15.968Z,1003.1
2018-10-12T11:03:15.731Z,1003.0
2018-10-12T11:06:15.528Z,1003.0
2018-10-12T11:09:15.308Z,1002.9
2018-10-12T11:12:15.894Z,1002.9
2018-10-12T11:15:15.665Z,1002.9
2018-10-12T11:18:15.262Z,1002.9
2018-10-12T11:21:15.747Z,1002.8
2018-10-12T11:24:15.152Z,1002.7
2018-10-12T11:27:16.019Z,1002.7
2018-10-12T11:30:15.171Z,1002.7
2018-10-12T11:33:15.523Z,1002.7
2018-10-12T11:36:15.574Z,1002.7
2018-10-12T11:39:15.997Z,1002.7
2018-10-12T11:42:15.311Z,1002.6
2018-10-12T11:45:15.765Z,1002.5
2018-10-12T11:48:15.258Z,1002.5
2018-10-12T11:51:15.462Z,1002.5
2018-10-12T11:54:15.746Z,1002.4
2018-10-12T11:57:15.126Z,1002.4
2018-10-12T12:00:15.505Z,1002.4
2018-10-12T12:03:15.913Z,1002.4
2018-10-12T12:06:15.153Z,1002.4
2018-10-12T12:09:15.287Z,1002.4
2018-10-12T12:12:15.620Z,1002.3
2018-10-12T12:15:15.916Z,1002.3
2018-10-12T12:18:15.489Z,1002.4
2018-10-12T12:21:15.800Z,1002.4
2018-10-12T12:24:15.376Z,1002.3
2018-10-12T12:27:15.564Z,1002.3
2018-10-12T12:30:15.994Z,1002.3
2018-10-12T12:33:15.384Z,1002.2
2018-10-12T12:36:16.041Z,1002.1
2018-10-12T12:39:15.443Z,1002.1
2018-10-12T12:42:15.735Z,1002.1
2018-10-12T12:45:16.007Z,1002.1
2018-10-12T12:48:15.506Z,1002.1
2018-10-12T12:51:15.211Z,1002.1
2018-10-12T12:54:15.759Z,1002.1
2018-10-12T12:57:15.796Z,1002.1
2018-10-12T13:00:15.273Z,1002.1
2018-10-12T13:03:16.015Z,1002.1
2018-10-12T13:06:15.281Z,1002.0
2018-10-12T13:09:16.069Z,1002.0
2018-10-12T13:12:15.271Z,1002.1
2018-10-12T13:15:15.490Z,1002.0
2018-10-12T13:18:15.762Z,1002.0
2018-10-12T13:21:15.054Z,1002.1
2018-10-12T13:24:15.049Z,1002.0
2018-10-12T13:27:15.361Z,1002.0
2018-10-12T13:30:15.407Z,1002.0
2018-10-12T13:33:15.864Z,1002.1
2018-10-12T13:36:15.325Z,1002.1
2018-10-12T13:39:15.627Z,1002.2
2018-10-12T13:42:15.971Z,1002.2
2018-10-12T13:45:15.186Z,1002.2
2018-10-12T13:48:15.546Z,1002.2
2018-10-12T13:51:15.098Z,1002.2
2018-10-12T13:54:15.404Z,1002.2
2018-10-12T13:57:15.949Z,1002.2
2018-10-12T14:00:15.401Z,1002.2
2018-10-12T14:03:15.446Z,1002.2
2018-10-12T14:06:15.941Z,1002.1
2018-10-12T14:09:15.266Z,1002.1
2018-10-12T14:12:15.237Z,1002.2
2018-10-12T14:15:15.905Z,1002.2
2018-10-12T14:18:15.383Z,1002.2
2018-10-12T14:21:15.316Z,1002.2
2018-10-12T14:24:15.693Z,1002.3
2018-10-12T14:27:15.968Z,1002.3
2018-10-12T14:30:15.381Z,1002.2
2018-10-12T14:33:15.701Z,1002.2
2018-10-12T14:36:15.150Z,1002.2
2018-10-12T14:39:15.521Z,1002.3
2018-10-12T14:42:15.884Z,1002.3
2018-10-12T14:45:15.249Z,1002.3
2018-10-12T14:48:15.683Z,1002.3
2018-10-12T14:51:16.057Z,1002.3
2018-10-12T14:54:15.558Z,1002.3
2018-10-12T14:57:15.157Z,1002.3
2018-10-12T15:00:15.697Z,1002.3
2018-10-12T15:03:15.186Z,1002.2
2018-10-12T15:06:15.741Z,1002.3
2018-10-12T15:09:15.113Z,1002.3
2018-10-12T15:12:15.402Z,1002.2
2018-10-12T15:15:15.701Z,1002.3
2018-10-12T15:18:15.510Z,1002.3
2018-10-12T15:21:15.737Z,1002.3
2018-10-12T15:24:15.849Z,1002.3
2018-10-12T15:27:15.214Z,1002.3
2018-10-12T15:30:15.683Z,1002.3
2018-10-12T15:33:16.013Z,1002.3
2018-10-12T15:36:15.543Z,1002.3
2018-10-12T15:39:15.889Z,1002.4
2018-10-12T15:42:15.434Z,1002.4
2018-10-12T15:45:15.836Z,1002.4
2018-10-12T15:48:15.250Z,1002.4
2018-10-12T15:51:15.893Z,1002.4
2018-10-12T15:54:16.052Z,1002.5
2018-10-12T15:57:15.599Z,1002.5
2018-10-12T16:00:15.533Z,1002.5
2018-10-12T16:03:15.764Z,1002.5
2018-10-12T16:06:15.986Z,1002.4
2018-10-12T16:09:15.029Z,1002.5
2018-10-12T16:12:15.651Z,1002.5
2018-10-12T16:15:15.299Z,1002.5
2018-10-12T16:18:15.992Z,1002.5
2018-10-12T16:21:15.352Z,1002.5
2018-10-12T16:24:15.866Z,1002.5
2018-10-12T16:27:15.090Z,1002.4
2018-10-12T16:30:15.600Z,1002.4
2018-10-12T16:33:15.211Z,1002.4
2018-10-12T16:36:15.956Z,1002.4
2018-10-12T16:39:15.466Z,1002.4
2018-10-12T16:42:15.802Z,1002.4
2018-10-12T16:45:15.070Z,1002.4
2018-10-12T16:48:15.201Z,1002.4
2018-10-12T16:51:15.636Z,1002.5
2018-10-12T16:54:15.085Z,1002.5
2018-10-12T16:57:15.404Z,1002.6
2018-10-12T17:00:15.715Z,1002.6
2018-10-12T17:03:15.791Z,1002.6
2018-10-12T17:06:16.009Z,1002.6
2018-10-12T17:09:15.597Z,1002.6
2018-10-12T17:12:14.980Z,1002.7
2018-10-12T17:15:15.467Z,1002.7
2018-10-12T17:18:15.165Z,1002.7
2018-10-12T17:21:15.058Z,1002.8
2018-10-12T17:24:15.360Z,1002.8
2018-10-12T17:27:15.721Z,1002.8
2018-10-12T17:30:15.209Z,1002.8
2018-10-12T17:33:14.989Z,1002.8
2018-10-12T17:36:15.504Z,1002.9
2018-10-12T17:39:15.891Z,1002.9
2018-10-12T17:42:15.421Z,1002.9
2018-10-12T17:45:15.136Z,1002.9
2018-10-12T17:48:15.460Z,1002.9
2018-10-12T17:51:15.761Z,1003.0
2018-10-12T17:54:15.950Z,1002.9
2018-10-12T17:57:15.322Z,1002.9
2018-10-12T18:00:15.670Z,1002.9
2018-10-12T18:03:15.569Z,1002.9
2018-10-12T18:06:15.969Z,1003.0
2018-10-12T18:09:15.388Z,1003.0
2018-10-12T18:12:15.689Z,1003.0
2018-10-12T18:15:15.580Z,1003.0
2018-10-12T18:18:16.024Z,1003.0
2018-10-12T18:21:15.288Z,1003.0
2018-10-12T18:24:15.437Z,1003.1
2018-10-12T18:27:15.403Z,1003.0
2018-10-12T18:30:15.892Z,1003.0
2018-10-12T18:33:15.203Z,1003.1
2018-10-12T18:36:16.919Z,1003.1
2018-10-12T18:39:15.191Z,1003.1
2018-10-12T18:42:15.669Z,1003.1
2018-10-12T18:45:15.413Z,1003.3
2018-10-12T18:48:15.922Z,1003.2
2018-10-12T18:51:15.434Z,1003.2
2018-10-12T18:54:15.502Z,1003.2
2018-10-12T18:57:15.938Z,1003.2
2018-10-12T19:00:15.274Z,1003.2
2018-10-12T19:03:15.628Z,1003.2
2018-10-12T19:06:15.109Z,1003.2
2018-10-12T19:09:15.846Z,1003.2
2018-10-12T19:12:15.549Z,1003.3
2018-10-12T19:15:16.027Z,1003.3
2018-10-12T19:18:15.658Z,1003.3
2018-10-12T19:21:15.748Z,1003.3
2018-10-12T19:24:15.324Z,1003.3
2018-10-12T19:27:15.800Z,1003.4
2018-10-12T19:30:15.057Z,1003.3
2018-10-12T19:33:15.136Z,1003.3
2018-10-12T19:36:15.286Z,1003.4
2018-10-12T19:39:15.728Z,1003.4
2018-10-12T19:42:15.242Z,1003.4
2018-10-12T19:45:15.835Z,1003.4
2018-10-12T19:48:15.190Z,1003.4
2018-10-12T19:51:15.451Z,1003.4
2018-10-12T19:54:16.028Z,1003.4
2018-10-12T19:57:15.244Z,1003.4
2018-10-12T20:00:15.732Z,1003.4
2018-10-12T20:03:15.121Z,1003.4
2018-10-12T20:06:15.833Z,1003.5
2018-10-12T20:09:15.145Z,1003.5
2018-10-12T20:12:15.468Z,1003.5
2018-10-12T20:15:16.062Z,1003.5
2018-10-12T20:18:15.587Z,1003.5
2018-10-12T20:21:15.928Z,1003.5
2018-10-12T20:24:15.514Z,1003.6
2018-10-12T20:27:15.746Z,1003.6
2018-10-12T20:30:15.104Z,1003.6
2018-10-12T20:33:15.214Z,1003.6
2018-10-12T20:36:15.250Z,1003.7
2018-10-12T20:39:15.969Z,1003.7
2018-10-12T20:42:15.296Z,1003.6
2018-10-12T20:45:15.755Z,1003.6
2018-10-12T20:48:15.079Z,1003.6
2018-10-12T20:51:15.039Z,1003.7
2018-10-12T20:54:15.313Z,1003.7
2018-10-12T20:57:15.708Z,1003.7
2018-10-12T21:00:15.296Z,1003.7
2018-10-12T21:03:15.998Z,1003.7
2018-10-12T21:06:15.466Z,1003.7
2018-10-12T21:09:15.811Z,1003.7
2018-10-12T21:12:15.093Z,1003.7
2018-10-12T21:15:15.216Z,1003.7
2018-10-12T21:18:15.598Z,1003.6
2018-10-12T21:21:15.977Z,1003.7
2018-10-12T21:24:15.436Z,1003.7
2018-10-12T21:27:15.735Z,1003.7
2018-10-12T21:30:15.134Z,1003.7
2018-10-12T21:33:15.348Z,1003.8
2018-10-12T21:36:15.794Z,1003.7
2018-10-12T21:39:15.923Z,1003.6
2018-10-12T21:42:15.124Z,1003.6
2018-10-12T21:45:15.302Z,1003.6
2018-10-12T21:48:15.995Z,1003.6
2018-10-12T21:51:15.302Z,1003.6
2018-10-12T21:54:15.553Z,1003.5
2018-10-12T21:57:15.863Z,1003.5
2018-10-12T22:00:16.179Z,1003.5
2018-10-12T22:03:15.377Z,1003.5
2018-10-12T22:06:15.592Z,1003.4
2018-10-12T22:09:15.761Z,1003.4
2018-10-12T22:12:15.926Z,1003.4
2018-10-12T22:15:15.037Z,1003.4
2018-10-12T22:18:15.339Z,1003.4
2018-10-12T22:21:15.891Z,1003.4
2018-10-12T22:24:15.182Z,1003.3
2018-10-12T22:27:15.604Z,1003.3
2018-10-12T22:30:15.978Z,1003.4
2018-10-12T22:33:15.232Z,1003.4
2018-10-12T22:36:15.682Z,1003.4
2018-10-12T22:39:15.827Z,1003.3
2018-10-12T22:42:16.110Z,1003.3
2018-10-12T22:45:15.189Z,1003.3
2018-10-12T22:48:15.948Z,1003.4
2018-10-12T22:51:15.259Z,1003.4
2018-10-12T22:54:15.653Z,1003.3
2018-10-12T22:57:15.827Z,1003.3
2018-10-12T23:00:15.039Z,1003.2
2018-10-12T23:03:15.179Z,1003.2
2018-10-12T23:06:15.488Z,1003.2
2018-10-12T23:09:15.595Z,1003.2
2018-10-12T23:12:15.912Z,1003.2
2018-10-12T23:15:15.297Z,1003.2
2018-10-12T23:18:15.691Z,1003.2
2018-10-12T23:21:15.360Z,1003.1
2018-10-12T23:24:15.698Z,1003.0
2018-10-12T23:27:15.761Z,1003.0
2018-10-12T23:30:15.307Z,1003.0
2018-10-12T23:33:15.664Z,1003.0
2018-10-12T23:36:15.611Z,1003.0
2018-10-12T23:39:15.791Z,1003.0
2018-10-12T23:42:15.161Z,1003.0
2018-10-12T23:45:15.374Z,1003.1
2018-10-12T23:48:15.542Z,1003.0
2018-10-12T23:51:15.688Z,1003.1
2018-10-12T23:54:15.073Z,1003.0
2018-10-12T23:57:15.104Z,1003.1
